sensor_id;sensor_type;location;lat;lon;timestamp;P1;durP1;ratioP1;P2;durP2;ratioP2
5363;SDS011;2705;41.410;2.160;2022-12-10T00:00:39;5.50;;;4.20;;
5363;SDS011;2705;41.410;2.160;2022-12-10T00:03:08;5.47;;;4.07;;
5363;SDS011;2705;41.410;2.160;2022-12-10T00:05:37;9.90;;;4.20;;
5363;SDS011;2705;41.410;2.160;2022-12-10T00:08:08;9.30;;;4.17;;
5363;SDS011;2705;41.410;2.160;2022-12-10T00:10:38;9.73;;;5.00;;
5363;SDS011;2705;41.410;2.160;2022-12-10T00:13:08;9.07;;;5.50;;
5363;SDS011;2705;41.410;2.160;2022-12-10T00:15:37;10.43;;;5.30;;
5363;SDS011;2705;41.410;2.160;2022-12-10T00:18:06;7.07;;;5.00;;
5363;SDS011;2705;41.410;2.160;2022-12-10T00:20:36;7.77;;;5.23;;
5363;SDS011;2705;41.410;2.160;2022-12-10T00:23:06;8.33;;;5.30;;
5363;SDS011;2705;41.410;2.160;2022-12-10T00:25:36;9.20;;;5.23;;
5363;SDS011;2705;41.410;2.160;2022-12-10T00:28:06;7.37;;;4.53;;
5363;SDS011;2705;41.410;2.160;2022-12-10T00:30:35;6.83;;;5.10;;
5363;SDS011;2705;41.410;2.160;2022-12-10T00:33:05;6.67;;;4.57;;
5363;SDS011;2705;41.410;2.160;2022-12-10T00:35:34;7.40;;;5.57;;
5363;SDS011;2705;41.410;2.160;2022-12-10T00:38:04;5.67;;;4.20;;
5363;SDS011;2705;41.410;2.160;2022-12-10T00:40:33;5.10;;;3.90;;
5363;SDS011;2705;41.410;2.160;2022-12-10T00:43:04;8.43;;;4.93;;
5363;SDS011;2705;41.410;2.160;2022-12-10T00:45:33;6.47;;;5.03;;
5363;SDS011;2705;41.410;2.160;2022-12-10T00:48:02;7.80;;;5.10;;
5363;SDS011;2705;41.410;2.160;2022-12-10T00:50:31;7.00;;;4.50;;
5363;SDS011;2705;41.410;2.160;2022-12-10T00:53:01;8.00;;;5.00;;
5363;SDS011;2705;41.410;2.160;2022-12-10T00:55:30;6.57;;;4.87;;
5363;SDS011;2705;41.410;2.160;2022-12-10T00:57:59;6.50;;;4.50;;
5363;SDS011;2705;41.410;2.160;2022-12-10T01:00:30;6.70;;;4.30;;
5363;SDS011;2705;41.410;2.160;2022-12-10T01:03:00;6.73;;;4.70;;
5363;SDS011;2705;41.410;2.160;2022-12-10T01:05:29;7.57;;;4.80;;
5363;SDS011;2705;41.410;2.160;2022-12-10T01:07:58;7.27;;;4.53;;
5363;SDS011;2705;41.410;2.160;2022-12-10T01:10:27;6.50;;;4.50;;
5363;SDS011;2705;41.410;2.160;2022-12-10T01:12:57;6.43;;;4.03;;
5363;SDS011;2705;41.410;2.160;2022-12-10T01:15:26;6.03;;;5.13;;
5363;SDS011;2705;41.410;2.160;2022-12-10T01:17:57;6.70;;;4.47;;
5363;SDS011;2705;41.410;2.160;2022-12-10T01:20:27;6.23;;;4.50;;
5363;SDS011;2705;41.410;2.160;2022-12-10T01:22:56;5.47;;;4.20;;
5363;SDS011;2705;41.410;2.160;2022-12-10T01:25:25;5.73;;;4.47;;
5363;SDS011;2705;41.410;2.160;2022-12-10T01:27:54;4.90;;;4.10;;
5363;SDS011;2705;41.410;2.160;2022-12-10T01:30:24;5.67;;;3.57;;
5363;SDS011;2705;41.410;2.160;2022-12-10T01:32:53;9.90;;;4.60;;
5363;SDS011;2705;41.410;2.160;2022-12-10T01:35:24;5.70;;;4.30;;
5363;SDS011;2705;41.410;2.160;2022-12-10T01:37:53;5.63;;;4.30;;
5363;SDS011;2705;41.410;2.160;2022-12-10T01:40:23;7.50;;;4.13;;
5363;SDS011;2705;41.410;2.160;2022-12-10T01:42:52;5.63;;;3.93;;
5363;SDS011;2705;41.410;2.160;2022-12-10T01:45:26;5.80;;;3.80;;
5363;SDS011;2705;41.410;2.160;2022-12-10T01:47:56;4.53;;;3.73;;
5363;SDS011;2705;41.410;2.160;2022-12-10T01:50:35;5.57;;;3.80;;
5363;SDS011;2705;41.410;2.160;2022-12-10T01:53:04;5.07;;;3.50;;
5363;SDS011;2705;41.410;2.160;2022-12-10T01:55:40;5.70;;;3.90;;
5363;SDS011;2705;41.410;2.160;2022-12-10T01:58:12;7.20;;;4.53;;
5363;SDS011;2705;41.410;2.160;2022-12-10T02:00:53;9.30;;;4.37;;
5363;SDS011;2705;41.410;2.160;2022-12-10T02:03:51;7.30;;;3.90;;
5363;SDS011;2705;41.410;2.160;2022-12-10T02:06:30;5.63;;;3.43;;
5363;SDS011;2705;41.410;2.160;2022-12-10T02:09:04;4.33;;;3.93;;
5363;SDS011;2705;41.410;2.160;2022-12-10T02:11:39;7.47;;;3.67;;
5363;SDS011;2705;41.410;2.160;2022-12-10T02:14:14;4.07;;;2.97;;
5363;SDS011;2705;41.410;2.160;2022-12-10T02:16:47;5.67;;;3.70;;
5363;SDS011;2705;41.410;2.160;2022-12-10T02:19:22;5.50;;;3.77;;
5363;SDS011;2705;41.410;2.160;2022-12-10T02:21:56;3.97;;;3.53;;
5363;SDS011;2705;41.410;2.160;2022-12-10T02:24:28;4.50;;;3.70;;
5363;SDS011;2705;41.410;2.160;2022-12-10T02:27:00;5.67;;;3.93;;
5363;SDS011;2705;41.410;2.160;2022-12-10T02:29:32;6.67;;;3.80;;
5363;SDS011;2705;41.410;2.160;2022-12-10T02:32:04;5.30;;;4.07;;
5363;SDS011;2705;41.410;2.160;2022-12-10T02:34:35;4.90;;;3.80;;
5363;SDS011;2705;41.410;2.160;2022-12-10T02:37:06;4.73;;;3.30;;
5363;SDS011;2705;41.410;2.160;2022-12-10T02:39:38;3.73;;;3.23;;
5363;SDS011;2705;41.410;2.160;2022-12-10T02:42:08;6.13;;;3.73;;
5363;SDS011;2705;41.410;2.160;2022-12-10T02:44:43;4.43;;;3.93;;
5363;SDS011;2705;41.410;2.160;2022-12-10T02:47:17;4.13;;;3.30;;
5363;SDS011;2705;41.410;2.160;2022-12-10T02:49:47;5.93;;;4.20;;
5363;SDS011;2705;41.410;2.160;2022-12-10T02:52:20;6.10;;;3.70;;
5363;SDS011;2705;41.410;2.160;2022-12-10T02:54:51;5.40;;;3.90;;
5363;SDS011;2705;41.410;2.160;2022-12-10T02:57:28;5.73;;;2.80;;
5363;SDS011;2705;41.410;2.160;2022-12-10T03:00:14;4.33;;;3.70;;
5363;SDS011;2705;41.410;2.160;2022-12-10T03:03:03;3.80;;;3.23;;
5363;SDS011;2705;41.410;2.160;2022-12-10T03:05:35;3.40;;;2.90;;
5363;SDS011;2705;41.410;2.160;2022-12-10T03:08:07;4.13;;;3.20;;
5363;SDS011;2705;41.410;2.160;2022-12-10T03:10:39;3.53;;;3.23;;
5363;SDS011;2705;41.410;2.160;2022-12-10T03:13:10;3.47;;;2.93;;
5363;SDS011;2705;41.410;2.160;2022-12-10T03:15:42;3.33;;;3.00;;
5363;SDS011;2705;41.410;2.160;2022-12-10T03:18:11;3.87;;;3.40;;
5363;SDS011;2705;41.410;2.160;2022-12-10T03:20:42;3.40;;;2.70;;
5363;SDS011;2705;41.410;2.160;2022-12-10T03:23:14;4.07;;;3.37;;
5363;SDS011;2705;41.410;2.160;2022-12-10T03:25:44;4.47;;;2.97;;
5363;SDS011;2705;41.410;2.160;2022-12-10T03:28:15;4.30;;;3.10;;
5363;SDS011;2705;41.410;2.160;2022-12-10T03:30:46;5.90;;;2.97;;
5363;SDS011;2705;41.410;2.160;2022-12-10T03:33:17;3.93;;;3.10;;
5363;SDS011;2705;41.410;2.160;2022-12-10T03:35:46;3.20;;;2.80;;
5363;SDS011;2705;41.410;2.160;2022-12-10T03:38:15;6.80;;;3.07;;
5363;SDS011;2705;41.410;2.160;2022-12-10T03:40:45;3.97;;;3.30;;
5363;SDS011;2705;41.410;2.160;2022-12-10T03:43:14;3.60;;;3.30;;
5363;SDS011;2705;41.410;2.160;2022-12-10T03:45:44;4.40;;;3.20;;
5363;SDS011;2705;41.410;2.160;2022-12-10T03:48:14;4.90;;;3.10;;
5363;SDS011;2705;41.410;2.160;2022-12-10T03:50:44;6.30;;;3.30;;
5363;SDS011;2705;41.410;2.160;2022-12-10T03:53:13;4.87;;;3.40;;
5363;SDS011;2705;41.410;2.160;2022-12-10T03:55:42;4.87;;;3.50;;
5363;SDS011;2705;41.410;2.160;2022-12-10T03:58:11;3.47;;;3.17;;
5363;SDS011;2705;41.410;2.160;2022-12-10T04:00:46;4.47;;;3.63;;
5363;SDS011;2705;41.410;2.160;2022-12-10T04:03:17;4.93;;;3.43;;
5363;SDS011;2705;41.410;2.160;2022-12-10T04:05:46;6.87;;;3.20;;
5363;SDS011;2705;41.410;2.160;2022-12-10T04:08:15;4.20;;;2.90;;
5363;SDS011;2705;41.410;2.160;2022-12-10T04:10:45;4.17;;;3.13;;
5363;SDS011;2705;41.410;2.160;2022-12-10T04:13:14;7.03;;;3.13;;
5363;SDS011;2705;41.410;2.160;2022-12-10T04:16:01;3.37;;;2.70;;
5363;SDS011;2705;41.410;2.160;2022-12-10T04:18:49;4.27;;;3.13;;
5363;SDS011;2705;41.410;2.160;2022-12-10T04:21:26;3.53;;;3.23;;
5363;SDS011;2705;41.410;2.160;2022-12-10T04:24:13;12.03;;;3.33;;
5363;SDS011;2705;41.410;2.160;2022-12-10T04:27:02;2.83;;;2.63;;
5363;SDS011;2705;41.410;2.160;2022-12-10T04:29:32;4.47;;;3.30;;
5363;SDS011;2705;41.410;2.160;2022-12-10T04:32:01;3.10;;;2.80;;
5363;SDS011;2705;41.410;2.160;2022-12-10T04:34:32;5.33;;;3.30;;
5363;SDS011;2705;41.410;2.160;2022-12-10T04:37:01;5.80;;;3.40;;
5363;SDS011;2705;41.410;2.160;2022-12-10T04:39:31;4.47;;;3.53;;
5363;SDS011;2705;41.410;2.160;2022-12-10T04:42:01;4.93;;;3.97;;
5363;SDS011;2705;41.410;2.160;2022-12-10T04:44:30;3.90;;;3.23;;
5363;SDS011;2705;41.410;2.160;2022-12-10T04:46:59;5.30;;;4.00;;
5363;SDS011;2705;41.410;2.160;2022-12-10T04:49:28;4.13;;;3.73;;
5363;SDS011;2705;41.410;2.160;2022-12-10T04:51:59;4.23;;;3.57;;
5363;SDS011;2705;41.410;2.160;2022-12-10T04:54:28;5.40;;;4.80;;
5363;SDS011;2705;41.410;2.160;2022-12-10T04:57:04;4.93;;;4.40;;
5363;SDS011;2705;41.410;2.160;2022-12-10T04:59:34;4.90;;;4.40;;
5363;SDS011;2705;41.410;2.160;2022-12-10T05:02:04;4.80;;;4.17;;
5363;SDS011;2705;41.410;2.160;2022-12-10T05:04:33;6.33;;;4.63;;
5363;SDS011;2705;41.410;2.160;2022-12-10T05:07:04;12.23;;;5.50;;
5363;SDS011;2705;41.410;2.160;2022-12-10T05:09:34;5.27;;;4.33;;
5363;SDS011;2705;41.410;2.160;2022-12-10T05:12:04;6.07;;;5.20;;
5363;SDS011;2705;41.410;2.160;2022-12-10T05:14:33;5.57;;;4.57;;
5363;SDS011;2705;41.410;2.160;2022-12-10T05:17:02;7.50;;;4.83;;
5363;SDS011;2705;41.410;2.160;2022-12-10T05:19:31;9.07;;;4.57;;
5363;SDS011;2705;41.410;2.160;2022-12-10T05:22:00;6.80;;;4.87;;
5363;SDS011;2705;41.410;2.160;2022-12-10T05:24:48;8.20;;;4.67;;
5363;SDS011;2705;41.410;2.160;2022-12-10T05:27:18;5.43;;;4.47;;
5363;SDS011;2705;41.410;2.160;2022-12-10T05:29:47;6.50;;;4.93;;
5363;SDS011;2705;41.410;2.160;2022-12-10T05:32:16;7.67;;;4.43;;
5363;SDS011;2705;41.410;2.160;2022-12-10T05:34:46;7.70;;;5.07;;
5363;SDS011;2705;41.410;2.160;2022-12-10T05:37:15;6.47;;;4.27;;
5363;SDS011;2705;41.410;2.160;2022-12-10T05:39:44;8.93;;;5.17;;
5363;SDS011;2705;41.410;2.160;2022-12-10T05:42:15;7.43;;;4.97;;
5363;SDS011;2705;41.410;2.160;2022-12-10T05:44:44;8.33;;;5.60;;
5363;SDS011;2705;41.410;2.160;2022-12-10T05:47:13;8.30;;;5.30;;
5363;SDS011;2705;41.410;2.160;2022-12-10T05:49:43;9.67;;;5.80;;
5363;SDS011;2705;41.410;2.160;2022-12-10T05:52:18;8.30;;;5.97;;
5363;SDS011;2705;41.410;2.160;2022-12-10T05:54:47;7.90;;;4.77;;
5363;SDS011;2705;41.410;2.160;2022-12-10T05:57:18;6.37;;;4.67;;
5363;SDS011;2705;41.410;2.160;2022-12-10T05:59:47;7.63;;;5.60;;
5363;SDS011;2705;41.410;2.160;2022-12-10T06:02:17;5.17;;;4.30;;
5363;SDS011;2705;41.410;2.160;2022-12-10T06:04:46;13.20;;;4.57;;
5363;SDS011;2705;41.410;2.160;2022-12-10T06:07:15;7.30;;;4.10;;
5363;SDS011;2705;41.410;2.160;2022-12-10T06:09:45;5.57;;;5.07;;
5363;SDS011;2705;41.410;2.160;2022-12-10T06:12:15;5.03;;;4.40;;
5363;SDS011;2705;41.410;2.160;2022-12-10T06:14:45;8.50;;;6.20;;
5363;SDS011;2705;41.410;2.160;2022-12-10T06:17:15;9.47;;;5.73;;
5363;SDS011;2705;41.410;2.160;2022-12-10T06:19:44;6.13;;;4.80;;
5363;SDS011;2705;41.410;2.160;2022-12-10T06:22:13;6.40;;;5.20;;
5363;SDS011;2705;41.410;2.160;2022-12-10T06:24:42;7.20;;;4.50;;
5363;SDS011;2705;41.410;2.160;2022-12-10T06:27:12;10.90;;;5.37;;
5363;SDS011;2705;41.410;2.160;2022-12-10T06:29:41;11.33;;;4.70;;
5363;SDS011;2705;41.410;2.160;2022-12-10T06:32:12;6.20;;;5.30;;
5363;SDS011;2705;41.410;2.160;2022-12-10T06:34:41;7.00;;;5.10;;
5363;SDS011;2705;41.410;2.160;2022-12-10T06:37:10;5.83;;;4.83;;
5363;SDS011;2705;41.410;2.160;2022-12-10T06:39:40;12.80;;;5.70;;
5363;SDS011;2705;41.410;2.160;2022-12-10T06:42:09;9.97;;;6.13;;
5363;SDS011;2705;41.410;2.160;2022-12-10T06:44:38;8.03;;;5.23;;
5363;SDS011;2705;41.410;2.160;2022-12-10T06:47:07;7.47;;;5.57;;
5363;SDS011;2705;41.410;2.160;2022-12-10T06:49:38;9.23;;;5.07;;
5363;SDS011;2705;41.410;2.160;2022-12-10T06:52:08;6.63;;;5.20;;
5363;SDS011;2705;41.410;2.160;2022-12-10T06:54:37;10.40;;;5.80;;
5363;SDS011;2705;41.410;2.160;2022-12-10T06:57:07;9.33;;;5.07;;
5363;SDS011;2705;41.410;2.160;2022-12-10T06:59:36;18.00;;;8.50;;
5363;SDS011;2705;41.410;2.160;2022-12-10T07:02:05;11.53;;;6.40;;
5363;SDS011;2705;41.410;2.160;2022-12-10T07:04:35;10.30;;;5.40;;
5363;SDS011;2705;41.410;2.160;2022-12-10T07:07:06;8.10;;;6.30;;
5363;SDS011;2705;41.410;2.160;2022-12-10T07:09:35;7.17;;;4.87;;
5363;SDS011;2705;41.410;2.160;2022-12-10T07:12:05;6.27;;;5.07;;
5363;SDS011;2705;41.410;2.160;2022-12-10T07:14:34;7.43;;;5.43;;
5363;SDS011;2705;41.410;2.160;2022-12-10T07:17:03;8.20;;;5.83;;
5363;SDS011;2705;41.410;2.160;2022-12-10T07:19:33;7.40;;;4.70;;
5363;SDS011;2705;41.410;2.160;2022-12-10T07:22:02;13.43;;;5.37;;
5363;SDS011;2705;41.410;2.160;2022-12-10T07:24:33;7.60;;;5.70;;
5363;SDS011;2705;41.410;2.160;2022-12-10T07:27:04;7.37;;;5.73;;
5363;SDS011;2705;41.410;2.160;2022-12-10T07:29:33;10.30;;;6.40;;
5363;SDS011;2705;41.410;2.160;2022-12-10T07:32:03;9.70;;;5.90;;
5363;SDS011;2705;41.410;2.160;2022-12-10T07:34:32;10.23;;;5.63;;
5363;SDS011;2705;41.410;2.160;2022-12-10T07:37:01;14.00;;;7.53;;
5363;SDS011;2705;41.410;2.160;2022-12-10T07:39:32;11.87;;;7.10;;
5363;SDS011;2705;41.410;2.160;2022-12-10T07:42:02;10.33;;;6.40;;
5363;SDS011;2705;41.410;2.160;2022-12-10T07:44:31;11.73;;;7.30;;
5363;SDS011;2705;41.410;2.160;2022-12-10T07:47:01;10.77;;;7.60;;
5363;SDS011;2705;41.410;2.160;2022-12-10T07:49:30;11.63;;;7.10;;
5363;SDS011;2705;41.410;2.160;2022-12-10T07:52:00;10.43;;;7.60;;
5363;SDS011;2705;41.410;2.160;2022-12-10T07:54:29;14.30;;;8.73;;
5363;SDS011;2705;41.410;2.160;2022-12-10T07:57:00;9.10;;;7.03;;
5363;SDS011;2705;41.410;2.160;2022-12-10T07:59:29;11.20;;;7.00;;
5363;SDS011;2705;41.410;2.160;2022-12-10T08:01:58;13.77;;;8.23;;
5363;SDS011;2705;41.410;2.160;2022-12-10T08:04:34;11.80;;;7.60;;
5363;SDS011;2705;41.410;2.160;2022-12-10T08:07:04;14.33;;;8.90;;
5363;SDS011;2705;41.410;2.160;2022-12-10T08:09:34;11.93;;;8.43;;
5363;SDS011;2705;41.410;2.160;2022-12-10T08:12:05;12.93;;;8.87;;
5363;SDS011;2705;41.410;2.160;2022-12-10T08:14:35;11.40;;;8.30;;
5363;SDS011;2705;41.410;2.160;2022-12-10T08:17:04;11.37;;;7.90;;
5363;SDS011;2705;41.410;2.160;2022-12-10T08:19:34;14.40;;;8.90;;
5363;SDS011;2705;41.410;2.160;2022-12-10T08:22:03;9.57;;;6.77;;
5363;SDS011;2705;41.410;2.160;2022-12-10T08:24:32;16.33;;;8.30;;
5363;SDS011;2705;41.410;2.160;2022-12-10T08:27:01;10.43;;;7.77;;
5363;SDS011;2705;41.410;2.160;2022-12-10T08:29:32;13.37;;;7.23;;
5363;SDS011;2705;41.410;2.160;2022-12-10T08:32:01;9.43;;;7.03;;
5363;SDS011;2705;41.410;2.160;2022-12-10T08:34:31;11.30;;;7.20;;
5363;SDS011;2705;41.410;2.160;2022-12-10T08:37:00;11.07;;;6.93;;
5363;SDS011;2705;41.410;2.160;2022-12-10T08:39:36;14.90;;;10.90;;
5363;SDS011;2705;41.410;2.160;2022-12-10T08:42:07;8.50;;;5.67;;
5363;SDS011;2705;41.410;2.160;2022-12-10T08:44:38;8.60;;;5.30;;
5363;SDS011;2705;41.410;2.160;2022-12-10T08:47:07;8.27;;;5.33;;
5363;SDS011;2705;41.410;2.160;2022-12-10T08:49:37;6.87;;;5.37;;
5363;SDS011;2705;41.410;2.160;2022-12-10T08:52:06;7.87;;;5.13;;
5363;SDS011;2705;41.410;2.160;2022-12-10T08:54:35;8.47;;;6.20;;
5363;SDS011;2705;41.410;2.160;2022-12-10T08:57:05;8.10;;;5.70;;
5363;SDS011;2705;41.410;2.160;2022-12-10T08:59:34;7.47;;;5.83;;
5363;SDS011;2705;41.410;2.160;2022-12-10T09:02:07;8.63;;;5.87;;
5363;SDS011;2705;41.410;2.160;2022-12-10T09:04:36;10.37;;;5.90;;
5363;SDS011;2705;41.410;2.160;2022-12-10T09:07:07;8.13;;;6.20;;
5363;SDS011;2705;41.410;2.160;2022-12-10T09:09:39;7.50;;;5.20;;
5363;SDS011;2705;41.410;2.160;2022-12-10T09:12:08;8.87;;;5.97;;
5363;SDS011;2705;41.410;2.160;2022-12-10T09:14:37;11.73;;;6.20;;
5363;SDS011;2705;41.410;2.160;2022-12-10T09:17:10;8.10;;;6.33;;
5363;SDS011;2705;41.410;2.160;2022-12-10T09:19:40;9.40;;;6.17;;
5363;SDS011;2705;41.410;2.160;2022-12-10T09:22:09;8.77;;;5.30;;
5363;SDS011;2705;41.410;2.160;2022-12-10T09:24:38;8.47;;;6.17;;
5363;SDS011;2705;41.410;2.160;2022-12-10T09:27:07;5.73;;;4.87;;
5363;SDS011;2705;41.410;2.160;2022-12-10T09:29:37;8.07;;;5.00;;
5363;SDS011;2705;41.410;2.160;2022-12-10T09:32:06;7.07;;;5.67;;
5363;SDS011;2705;41.410;2.160;2022-12-10T09:34:37;11.03;;;5.50;;
5363;SDS011;2705;41.410;2.160;2022-12-10T09:37:07;8.00;;;6.00;;
5363;SDS011;2705;41.410;2.160;2022-12-10T09:39:36;9.70;;;5.90;;
5363;SDS011;2705;41.410;2.160;2022-12-10T09:42:10;12.20;;;6.40;;
5363;SDS011;2705;41.410;2.160;2022-12-10T09:44:44;8.13;;;4.10;;
5363;SDS011;2705;41.410;2.160;2022-12-10T09:47:15;5.10;;;4.10;;
5363;SDS011;2705;41.410;2.160;2022-12-10T09:49:55;6.37;;;4.27;;
5363;SDS011;2705;41.410;2.160;2022-12-10T09:52:26;3.90;;;3.30;;
5363;SDS011;2705;41.410;2.160;2022-12-10T09:54:59;4.80;;;3.90;;
5363;SDS011;2705;41.410;2.160;2022-12-10T09:57:29;5.00;;;4.43;;
5363;SDS011;2705;41.410;2.160;2022-12-10T10:00:02;3.33;;;3.03;;
5363;SDS011;2705;41.410;2.160;2022-12-10T10:02:37;5.60;;;2.90;;
5363;SDS011;2705;41.410;2.160;2022-12-10T10:05:10;5.73;;;3.77;;
5363;SDS011;2705;41.410;2.160;2022-12-10T10:07:42;5.93;;;3.30;;
5363;SDS011;2705;41.410;2.160;2022-12-10T10:10:18;6.27;;;3.20;;
5363;SDS011;2705;41.410;2.160;2022-12-10T10:12:49;3.10;;;2.63;;
5363;SDS011;2705;41.410;2.160;2022-12-10T10:15:22;4.90;;;3.17;;
5363;SDS011;2705;41.410;2.160;2022-12-10T10:17:53;7.87;;;3.77;;
5363;SDS011;2705;41.410;2.160;2022-12-10T10:20:25;4.70;;;2.53;;
5363;SDS011;2705;41.410;2.160;2022-12-10T10:22:55;3.90;;;2.80;;
5363;SDS011;2705;41.410;2.160;2022-12-10T10:25:25;3.00;;;2.07;;
5363;SDS011;2705;41.410;2.160;2022-12-10T10:27:54;3.03;;;2.70;;
5363;SDS011;2705;41.410;2.160;2022-12-10T10:30:24;2.50;;;2.30;;
5363;SDS011;2705;41.410;2.160;2022-12-10T10:32:54;2.50;;;2.30;;
5363;SDS011;2705;41.410;2.160;2022-12-10T10:35:27;3.53;;;2.87;;
5363;SDS011;2705;41.410;2.160;2022-12-10T10:37:57;2.47;;;2.27;;
5363;SDS011;2705;41.410;2.160;2022-12-10T10:40:28;2.90;;;2.47;;
5363;SDS011;2705;41.410;2.160;2022-12-10T10:42:59;3.63;;;2.20;;
5363;SDS011;2705;41.410;2.160;2022-12-10T10:45:38;3.97;;;2.00;;
5363;SDS011;2705;41.410;2.160;2022-12-10T10:48:10;2.97;;;2.67;;
5363;SDS011;2705;41.410;2.160;2022-12-10T10:50:43;2.50;;;2.13;;
5363;SDS011;2705;41.410;2.160;2022-12-10T10:53:26;2.73;;;2.20;;
5363;SDS011;2705;41.410;2.160;2022-12-10T10:55:56;3.13;;;2.20;;
5363;SDS011;2705;41.410;2.160;2022-12-10T10:58:26;1.70;;;1.60;;
5363;SDS011;2705;41.410;2.160;2022-12-10T11:00:57;5.30;;;2.97;;
5363;SDS011;2705;41.410;2.160;2022-12-10T11:03:26;2.20;;;2.00;;
5363;SDS011;2705;41.410;2.160;2022-12-10T11:05:58;2.93;;;2.10;;
5363;SDS011;2705;41.410;2.160;2022-12-10T11:08:29;2.50;;;2.30;;
5363;SDS011;2705;41.410;2.160;2022-12-10T11:11:01;2.80;;;2.20;;
5363;SDS011;2705;41.410;2.160;2022-12-10T11:13:32;2.17;;;1.97;;
5363;SDS011;2705;41.410;2.160;2022-12-10T11:16:09;2.53;;;2.10;;
5363;SDS011;2705;41.410;2.160;2022-12-10T11:18:39;2.57;;;1.90;;
5363;SDS011;2705;41.410;2.160;2022-12-10T11:21:17;2.47;;;2.27;;
5363;SDS011;2705;41.410;2.160;2022-12-10T11:23:49;2.60;;;2.40;;
5363;SDS011;2705;41.410;2.160;2022-12-10T11:29:11;3.80;;;2.10;;
5363;SDS011;2705;41.410;2.160;2022-12-10T11:31:46;2.83;;;2.20;;
5363;SDS011;2705;41.410;2.160;2022-12-10T11:34:17;4.13;;;2.43;;
5363;SDS011;2705;41.410;2.160;2022-12-10T11:36:52;4.70;;;3.23;;
5363;SDS011;2705;41.410;2.160;2022-12-10T11:39:27;9.03;;;2.40;;
5363;SDS011;2705;41.410;2.160;2022-12-10T11:41:58;3.20;;;2.70;;
5363;SDS011;2705;41.410;2.160;2022-12-10T11:44:31;3.50;;;2.50;;
5363;SDS011;2705;41.410;2.160;2022-12-10T11:49:53;3.73;;;2.30;;
5363;SDS011;2705;41.410;2.160;2022-12-10T11:52:31;9.93;;;2.87;;
5363;SDS011;2705;41.410;2.160;2022-12-10T11:55:07;2.23;;;2.03;;
5363;SDS011;2705;41.410;2.160;2022-12-10T11:57:43;3.13;;;2.17;;
5363;SDS011;2705;41.410;2.160;2022-12-10T12:00:17;2.63;;;2.40;;
5363;SDS011;2705;41.410;2.160;2022-12-10T12:03:02;3.13;;;2.40;;
5363;SDS011;2705;41.410;2.160;2022-12-10T12:08:23;3.43;;;1.90;;
5363;SDS011;2705;41.410;2.160;2022-12-10T12:10:58;2.30;;;2.10;;
5363;SDS011;2705;41.410;2.160;2022-12-10T12:13:31;3.90;;;2.50;;
5363;SDS011;2705;41.410;2.160;2022-12-10T12:16:03;6.03;;;2.40;;
5363;SDS011;2705;41.410;2.160;2022-12-10T12:18:36;3.50;;;2.83;;
5363;SDS011;2705;41.410;2.160;2022-12-10T12:21:10;2.80;;;2.60;;
5363;SDS011;2705;41.410;2.160;2022-12-10T12:23:43;6.20;;;2.57;;
5363;SDS011;2705;41.410;2.160;2022-12-10T12:26:15;2.40;;;2.20;;
5363;SDS011;2705;41.410;2.160;2022-12-10T12:28:47;6.60;;;3.10;;
5363;SDS011;2705;41.410;2.160;2022-12-10T12:31:18;4.33;;;2.83;;
5363;SDS011;2705;41.410;2.160;2022-12-10T12:33:50;4.90;;;2.00;;
5363;SDS011;2705;41.410;2.160;2022-12-10T12:36:21;3.07;;;2.30;;
5363;SDS011;2705;41.410;2.160;2022-12-10T12:38:55;4.73;;;2.20;;
5363;SDS011;2705;41.410;2.160;2022-12-10T12:41:30;2.63;;;2.43;;
5363;SDS011;2705;41.410;2.160;2022-12-10T12:44:04;3.30;;;2.83;;
5363;SDS011;2705;41.410;2.160;2022-12-10T12:46:37;3.70;;;2.10;;
5363;SDS011;2705;41.410;2.160;2022-12-10T12:49:10;3.40;;;2.50;;
5363;SDS011;2705;41.410;2.160;2022-12-10T12:51:44;6.60;;;3.43;;
5363;SDS011;2705;41.410;2.160;2022-12-10T12:54:16;4.00;;;2.37;;
5363;SDS011;2705;41.410;2.160;2022-12-10T12:59:35;3.00;;;2.70;;
5363;SDS011;2705;41.410;2.160;2022-12-10T13:02:13;3.93;;;2.80;;
5363;SDS011;2705;41.410;2.160;2022-12-10T13:04:43;4.73;;;2.87;;
5363;SDS011;2705;41.410;2.160;2022-12-10T13:07:33;3.63;;;2.67;;
5363;SDS011;2705;41.410;2.160;2022-12-10T13:12:49;7.60;;;2.83;;
5363;SDS011;2705;41.410;2.160;2022-12-10T13:15:19;3.30;;;2.63;;
5363;SDS011;2705;41.410;2.160;2022-12-10T13:18:04;4.43;;;2.90;;
5363;SDS011;2705;41.410;2.160;2022-12-10T13:20:35;3.20;;;2.80;;
5363;SDS011;2705;41.410;2.160;2022-12-10T13:23:05;4.47;;;3.20;;
5363;SDS011;2705;41.410;2.160;2022-12-10T13:25:55;3.23;;;2.70;;
5363;SDS011;2705;41.410;2.160;2022-12-10T13:28:30;2.77;;;2.20;;
5363;SDS011;2705;41.410;2.160;2022-12-10T13:33:51;2.50;;;2.30;;
5363;SDS011;2705;41.410;2.160;2022-12-10T13:36:23;5.90;;;2.73;;
5363;SDS011;2705;41.410;2.160;2022-12-10T13:38:57;3.07;;;2.70;;
5363;SDS011;2705;41.410;2.160;2022-12-10T13:41:27;3.20;;;2.63;;
5363;SDS011;2705;41.410;2.160;2022-12-10T13:44:32;3.90;;;2.40;;
5363;SDS011;2705;41.410;2.160;2022-12-10T13:47:04;3.03;;;2.70;;
5363;SDS011;2705;41.410;2.160;2022-12-10T13:49:35;2.83;;;2.60;;
5363;SDS011;2705;41.410;2.160;2022-12-10T13:52:12;2.67;;;2.33;;
5363;SDS011;2705;41.410;2.160;2022-12-10T13:57:56;3.37;;;2.87;;
5363;SDS011;2705;41.410;2.160;2022-12-10T14:00:31;3.83;;;3.20;;
5363;SDS011;2705;41.410;2.160;2022-12-10T14:03:14;2.80;;;2.47;;
5363;SDS011;2705;41.410;2.160;2022-12-10T14:08:31;4.57;;;2.60;;
5363;SDS011;2705;41.410;2.160;2022-12-10T14:11:01;2.57;;;2.37;;
5363;SDS011;2705;41.410;2.160;2022-12-10T14:13:39;2.53;;;2.33;;
5363;SDS011;2705;41.410;2.160;2022-12-10T14:16:12;7.77;;;2.20;;
5363;SDS011;2705;41.410;2.160;2022-12-10T14:18:51;5.80;;;2.60;;
5363;SDS011;2705;41.410;2.160;2022-12-10T14:21:21;2.67;;;2.47;;
5363;SDS011;2705;41.410;2.160;2022-12-10T14:23:52;8.23;;;3.27;;
5363;SDS011;2705;41.410;2.160;2022-12-10T14:26:25;4.50;;;2.40;;
5363;SDS011;2705;41.410;2.160;2022-12-10T14:28:56;3.37;;;2.30;;
5363;SDS011;2705;41.410;2.160;2022-12-10T14:31:27;2.50;;;1.90;;
5363;SDS011;2705;41.410;2.160;2022-12-10T14:33:59;3.40;;;2.20;;
5363;SDS011;2705;41.410;2.160;2022-12-10T14:36:29;4.40;;;2.10;;
5363;SDS011;2705;41.410;2.160;2022-12-10T14:38:59;5.40;;;2.20;;
5363;SDS011;2705;41.410;2.160;2022-12-10T14:41:29;3.77;;;2.40;;
5363;SDS011;2705;41.410;2.160;2022-12-10T14:44:06;2.93;;;2.20;;
5363;SDS011;2705;41.410;2.160;2022-12-10T14:46:39;3.70;;;2.40;;
5363;SDS011;2705;41.410;2.160;2022-12-10T14:49:08;8.70;;;3.20;;
5363;SDS011;2705;41.410;2.160;2022-12-10T14:51:43;2.50;;;2.30;;
5363;SDS011;2705;41.410;2.160;2022-12-10T14:54:23;2.93;;;2.23;;
5363;SDS011;2705;41.410;2.160;2022-12-10T14:56:54;3.07;;;2.43;;
5363;SDS011;2705;41.410;2.160;2022-12-10T14:59:25;3.30;;;2.40;;
5363;SDS011;2705;41.410;2.160;2022-12-10T15:01:58;3.43;;;2.40;;
5363;SDS011;2705;41.410;2.160;2022-12-10T15:04:29;4.47;;;2.57;;
5363;SDS011;2705;41.410;2.160;2022-12-10T15:07:00;5.63;;;2.30;;
5363;SDS011;2705;41.410;2.160;2022-12-10T15:09:30;2.53;;;1.80;;
5363;SDS011;2705;41.410;2.160;2022-12-10T15:12:00;2.50;;;2.30;;
5363;SDS011;2705;41.410;2.160;2022-12-10T15:14:29;4.30;;;2.43;;
5363;SDS011;2705;41.410;2.160;2022-12-10T15:17:00;6.03;;;2.47;;
5363;SDS011;2705;41.410;2.160;2022-12-10T15:19:31;7.73;;;2.37;;
5363;SDS011;2705;41.410;2.160;2022-12-10T15:22:02;4.53;;;3.27;;
5363;SDS011;2705;41.410;2.160;2022-12-10T15:24:41;5.53;;;2.60;;
5363;SDS011;2705;41.410;2.160;2022-12-10T15:27:14;5.60;;;3.67;;
5363;SDS011;2705;41.410;2.160;2022-12-10T15:29:44;6.90;;;2.10;;
5363;SDS011;2705;41.410;2.160;2022-12-10T15:32:16;3.30;;;2.33;;
5363;SDS011;2705;41.410;2.160;2022-12-10T15:34:48;4.83;;;2.50;;
5363;SDS011;2705;41.410;2.160;2022-12-10T15:37:19;4.33;;;2.90;;
5363;SDS011;2705;41.410;2.160;2022-12-10T15:39:51;4.07;;;2.80;;
5363;SDS011;2705;41.410;2.160;2022-12-10T15:42:29;2.00;;;1.80;;
5363;SDS011;2705;41.410;2.160;2022-12-10T15:44:59;3.00;;;2.20;;
5363;SDS011;2705;41.410;2.160;2022-12-10T15:47:31;3.97;;;3.47;;
5363;SDS011;2705;41.410;2.160;2022-12-10T15:50:05;8.03;;;4.50;;
5363;SDS011;2705;41.410;2.160;2022-12-10T15:52:34;7.73;;;3.20;;
5363;SDS011;2705;41.410;2.160;2022-12-10T15:55:04;2.60;;;2.10;;
5363;SDS011;2705;41.410;2.160;2022-12-10T15:57:34;4.83;;;2.30;;
5363;SDS011;2705;41.410;2.160;2022-12-10T16:00:06;5.70;;;3.50;;
5363;SDS011;2705;41.410;2.160;2022-12-10T16:02:40;3.80;;;2.10;;
5363;SDS011;2705;41.410;2.160;2022-12-10T16:05:12;4.10;;;3.03;;